createdAt,value
2019-04-07T13:22:53.140Z,10.90
2019-04-07T13:26:03.821Z,10.40
2019-04-07T13:29:11.849Z,13.62
2019-04-07T13:32:20.654Z,10.90
2019-04-07T13:35:32.010Z,20.90
2019-04-07T13:38:37.154Z,16.15
2019-04-07T13:41:45.859Z,13.45
2019-04-07T13:45:04.497Z,13.03
2019-04-07T13:48:25.936Z,11.03
2019-04-07T13:51:36.709Z,11.55
2019-04-07T13:54:42.278Z,10.58
2019-04-07T13:57:48.270Z,9.58
2019-04-07T14:00:56.314Z,11.10
2019-04-07T14:04:05.606Z,9.30
2019-04-07T14:07:11.639Z,10.82
2019-04-07T14:10:17.115Z,10.00
2019-04-07T14:13:40.675Z,14.25
2019-04-07T14:16:48.687Z,20.25
2019-04-07T14:20:10.356Z,14.78
2019-04-07T14:23:18.657Z,15.70
2019-04-07T14:26:23.623Z,13.43
2019-04-07T14:29:29.569Z,14.35
2019-04-07T14:32:41.592Z,13.70
2019-04-07T14:35:47.703Z,11.83
2019-04-07T14:38:53.190Z,12.28
2019-04-07T14:42:04.762Z,14.90
2019-04-07T14:45:05.615Z,12.03
2019-04-07T14:48:11.368Z,11.57
2019-04-07T14:51:17.527Z,13.35
2019-04-07T14:54:27.023Z,11.97
2019-04-07T14:57:41.512Z,10.98
2019-04-07T15:00:57.199Z,10.75
2019-04-07T15:04:02.229Z,12.78
2019-04-07T15:07:09.172Z,10.00
2019-04-07T15:10:16.863Z,10.00
2019-04-07T15:13:23.938Z,10.72
2019-04-07T15:16:27.385Z,11.43
2019-04-07T15:19:31.099Z,11.05
2019-04-07T15:22:34.608Z,11.48
2019-04-07T15:25:42.804Z,11.33
2019-04-07T15:28:44.632Z,11.30
2019-04-07T15:31:50.787Z,10.25
2019-04-07T15:34:54.590Z,9.85
2019-04-07T15:37:59.080Z,10.68
2019-04-07T15:41:07.716Z,13.32
2019-04-07T15:44:10.058Z,10.85
2019-04-07T15:47:13.177Z,10.58
2019-04-07T15:50:16.792Z,14.13
2019-04-07T15:53:20.933Z,12.63
2019-04-07T15:56:24.570Z,13.70
2019-04-07T15:59:29.748Z,12.20
2019-04-07T16:02:34.539Z,12.50
2019-04-07T16:05:42.424Z,11.22
2019-04-07T16:08:43.169Z,11.63
2019-04-07T16:11:49.232Z,14.30
2019-04-07T16:14:51.757Z,13.00
2019-04-07T16:17:55.568Z,13.25
2019-04-07T16:21:00.691Z,15.08
2019-04-07T16:24:06.190Z,14.35
2019-04-07T16:27:10.883Z,15.28
2019-04-07T16:30:16.425Z,14.23
2019-04-07T16:33:20.522Z,14.43
2019-04-07T16:36:25.543Z,14.07
2019-04-07T16:39:34.121Z,12.80
2019-04-07T16:42:36.111Z,14.30
2019-04-07T16:45:44.167Z,13.28
2019-04-07T16:48:46.400Z,14.70
2019-04-07T16:51:49.837Z,14.18
2019-04-07T16:54:53.447Z,13.65
2019-04-07T16:57:59.423Z,14.53
2019-04-07T17:01:02.046Z,14.25
2019-04-07T17:04:06.318Z,15.10
2019-04-07T17:07:14.181Z,16.97
2019-04-07T17:10:15.134Z,18.05
2019-04-07T17:13:28.038Z,19.82
2019-04-07T17:16:25.028Z,53.20
2019-04-07T17:19:28.553Z,61.02
2019-04-07T17:22:32.597Z,99.13
2019-04-07T17:25:36.306Z,110.55
2019-04-07T17:28:44.600Z,144.37
2019-04-07T17:31:45.620Z,132.00
2019-04-07T17:34:50.820Z,106.05
2019-04-07T17:37:59.808Z,92.30
2019-04-07T17:41:01.334Z,112.12
2019-04-07T17:44:13.220Z,97.00
2019-04-07T17:47:15.849Z,86.28
2019-04-07T17:50:23.429Z,71.60
2019-04-07T17:53:38.381Z,76.62
2019-04-07T17:56:43.496Z,87.02
2019-04-07T17:59:49.392Z,81.78
2019-04-07T18:03:05.283Z,77.65
2019-04-07T18:06:19.563Z,84.97
2019-04-07T18:09:44.966Z,66.77
2019-04-07T18:12:54.087Z,71.70
2019-04-07T18:15:59.881Z,66.95
2019-04-07T18:19:05.596Z,67.78
2019-04-07T18:22:27.475Z,66.50
2019-04-07T18:25:50.553Z,62.45
2019-04-07T18:28:59.620Z,73.00
2019-04-07T18:32:16.539Z,70.83
2019-04-07T18:35:43.252Z,65.92
2019-04-07T18:38:54.948Z,69.87
2019-04-07T18:42:02.053Z,66.90
2019-04-07T18:45:25.508Z,85.80
2019-04-07T18:48:34.731Z,88.50
2019-04-07T18:51:48.356Z,87.10
2019-04-07T18:58:53.449Z,132.78
2019-04-07T19:04:01.280Z,116.37
2019-04-07T19:09:28.311Z,118.20
2019-04-07T19:14:44.625Z,140.68
2019-04-07T19:19:49.391Z,126.25
2019-04-07T19:24:58.157Z,130.05
2019-04-07T19:30:19.426Z,140.80
2019-04-07T19:35:40.681Z,160.85
2019-04-07T19:40:53.214Z,153.97
2019-04-07T19:46:04.802Z,319.35
2019-04-07T19:51:17.731Z,281.00
2019-04-07T19:56:40.075Z,227.82
2019-04-07T20:01:46.174Z,222.90
2019-04-07T20:06:59.543Z,215.87
2019-04-07T20:12:16.258Z,199.42
2019-04-07T20:17:34.439Z,197.45
2019-04-07T20:22:40.033Z,210.57
2019-04-07T20:28:02.288Z,204.43
2019-04-07T20:33:11.780Z,217.68
2019-04-07T20:38:35.847Z,195.32
2019-04-07T20:43:39.381Z,218.10
2019-04-07T20:48:43.498Z,203.10
2019-04-07T20:55:42.844Z,216.23
2019-04-07T20:59:53.080Z,202.97
2019-04-07T21:03:55.654Z,215.15
2019-04-07T21:08:00.728Z,197.55
2019-04-07T21:12:14.863Z,203.22
2019-04-07T21:16:23.496Z,199.07
2019-04-07T21:24:58.687Z,209.10
2019-04-07T21:29:02.407Z,216.25
2019-04-07T21:33:08.963Z,181.80
2019-04-07T21:37:14.791Z,193.40
2019-04-07T21:41:17.391Z,188.82
2019-04-07T21:45:35.378Z,226.30
2019-04-07T21:49:37.199Z,231.93
2019-04-07T21:53:43.163Z,247.42
2019-04-07T21:57:59.795Z,243.22
2019-04-07T22:02:13.369Z,212.30
2019-04-07T22:06:26.547Z,229.38
2019-04-07T22:10:27.566Z,246.70
2019-04-07T22:14:28.888Z,209.52
2019-04-07T22:18:30.369Z,217.70
2019-04-07T22:22:33.220Z,179.50
2019-04-07T22:26:35.310Z,222.22
2019-04-07T22:30:39.919Z,182.53
2019-04-07T22:34:39.970Z,169.82
2019-04-07T22:38:41.239Z,159.40
2019-04-07T22:42:45.490Z,181.95
2019-04-07T22:46:48.042Z,176.78
2019-04-07T22:50:49.606Z,181.00
2019-04-07T22:54:51.918Z,182.43
2019-04-07T22:58:54.112Z,182.53
2019-04-07T23:02:56.007Z,171.05
2019-04-07T23:06:57.280Z,143.35
2019-04-07T23:10:58.739Z,139.45
2019-04-07T23:14:59.990Z,159.75
2019-04-07T23:19:02.627Z,151.57
2019-04-07T23:23:04.728Z,175.53
2019-04-07T23:27:06.248Z,180.48
2019-04-07T23:31:07.574Z,152.00
2019-04-07T23:35:09.157Z,154.15
2019-04-07T23:39:11.115Z,186.28
2019-04-07T23:43:13.191Z,195.70
2019-04-07T23:47:15.271Z,244.62
2019-04-07T23:51:17.156Z,181.70
2019-04-07T23:55:18.414Z,169.13
2019-04-07T23:59:20.760Z,163.77
